Time;durP1;ratioP1;P1;durP2;ratioP2;P2;SDS_P1;SDS_P2;PMS_P1;PMS_P2;Temp;Humidity;BMP_temperature;BMP_pressure;BME280_temperature;BME280_humidity;BME280_pressure;Samples;Min_cycle;Max_cycle;Signal;HPM_P1;HPM_P2
2021/07/14 00:01:14;;;;;;;37.27;16.60;;;16.30;99.90;;;;;;5092059;28;20195;-77
2021/07/14 00:03:42;;;;;;;29.63;16.07;;;16.30;99.90;;;;;;5088848;28;20206;-77
2021/07/14 00:06:09;;;;;;;26.00;15.30;;;16.30;99.90;;;;;;5092940;28;20299;-77
2021/07/14 00:08:36;;;;;;;27.70;16.17;;;16.20;99.90;;;;;;5092838;28;20241;-77
2021/07/14 00:11:04;;;;;;;25.73;15.63;;;16.30;99.90;;;;;;5092823;28;20191;-77
2021/07/14 00:13:33;;;;;;;27.90;14.63;;;16.30;99.90;;;;;;5092881;28;20610;-77
2021/07/14 00:24:15;;;;;;;27.50;14.10;;;16.30;99.90;;;;;;5091727;28;20233;-77
2021/07/14 00:26:42;;;;;;;24.33;13.53;;;16.30;99.90;;;;;;5089735;28;20225;-77
2021/07/14 00:29:12;;;;;;;23.50;13.40;;;16.30;99.90;;;;;;5092618;28;20290;-77
2021/07/14 00:31:39;;;;;;;25.33;12.80;;;16.30;99.90;;;;;;5092196;28;20573;-77
2021/07/14 00:34:07;;;;;;;26.37;13.23;;;16.30;99.90;;;;;;5092424;28;20195;-77
2021/07/14 00:36:35;;;;;;;23.63;11.80;;;16.30;99.90;;;;;;5092521;28;20281;-77
2021/07/14 00:39:02;;;;;;;18.93;12.43;;;16.30;99.90;;;;;;5092845;28;20274;-77
2021/07/14 00:41:29;;;;;;;24.10;12.83;;;16.30;99.90;;;;;;5092532;28;20660;-77
2021/07/14 00:43:56;;;;;;;21.47;12.73;;;16.30;99.90;;;;;;5092540;28;20634;-77
2021/07/14 00:46:25;;;;;;;24.67;12.33;;;16.20;99.90;;;;;;5092489;28;20242;-77
2021/07/14 00:48:54;;;;;;;22.40;12.40;;;16.20;99.90;;;;;;5091705;28;20566;-76
2021/07/14 00:51:24;;;;;;;17.23;12.13;;;16.20;99.90;;;;;;5087370;28;20287;-77
2021/07/14 00:53:51;;;;;;;23.13;13.07;;;16.10;99.90;;;;;;5081752;28;20186;-77
2021/07/14 00:56:19;;;;;;;24.47;14.00;;;16.00;99.90;;;;;;5081045;28;20195;-77
2021/07/14 00:58:46;;;;;;;23.07;13.73;;;16.00;99.90;;;;;;5082220;28;20668;-77
2021/07/14 01:01:13;;;;;;;25.43;13.70;;;16.00;99.90;;;;;;5083604;28;20281;-76
2021/07/14 01:03:43;;;;;;;25.93;14.70;;;16.00;99.90;;;;;;5092848;28;20282;-76
2021/07/14 01:06:17;;;;;;;26.73;15.10;;;16.00;99.90;;;;;;5096413;28;20579;-76
2021/07/14 01:08:51;;;;;;;29.57;15.63;;;16.00;99.90;;;;;;5096345;28;20198;-76
2021/07/14 01:11:21;;;;;;;24.33;15.37;;;15.90;99.90;;;;;;5095975;28;20685;-75
2021/07/14 01:14:00;;;;;;;29.77;16.50;;;15.90;99.90;;;;;;5093821;28;20766;-75
2021/07/14 01:16:32;;;;;;;30.37;15.53;;;15.90;99.90;;;;;;5093815;28;20194;-75
2021/07/14 01:19:10;;;;;;;28.43;16.70;;;15.90;99.90;;;;;;5096324;28;20199;-75
2021/07/14 01:21:41;;;;;;;33.90;16.60;;;15.90;99.90;;;;;;5095198;28;20205;-75
2021/07/14 01:24:17;;;;;;;34.60;17.20;;;16.00;99.90;;;;;;5093534;28;20668;-76
2021/07/14 01:27:15;;;;;;;32.50;16.70;;;15.90;99.90;;;;;;5095302;28;20313;-74
2021/07/14 01:29:45;;;;;;;30.00;16.30;;;15.90;99.90;;;;;;5094685;28;20599;-75
2021/07/14 01:32:14;;;;;;;33.97;16.90;;;16.00;99.90;;;;;;5095543;28;20187;-75
2021/07/14 01:34:44;;;;;;;29.70;16.70;;;15.90;99.90;;;;;;5095792;28;20378;-75
2021/07/14 01:37:13;;;;;;;29.47;16.20;;;15.90;99.90;;;;;;5095815;28;20278;-75
2021/07/14 01:39:44;;;;;;;25.97;14.20;;;15.90;99.90;;;;;;5096161;28;20238;-75
2021/07/14 01:42:14;;;;;;;32.47;16.47;;;15.90;99.90;;;;;;5093436;28;20220;-75
2021/07/14 01:44:42;;;;;;;27.70;14.73;;;15.90;99.90;;;;;;5095533;28;20237;-75
2021/07/14 01:47:09;;;;;;;31.63;15.33;;;15.90;99.90;;;;;;5095422;28;20253;-75
2021/07/14 01:49:37;;;;;;;32.23;15.67;;;15.90;99.90;;;;;;5095865;28;20282;-75
2021/07/14 01:52:08;;;;;;;36.13;15.50;;;15.80;99.90;;;;;;5096178;28;20277;-75
2021/07/14 01:54:36;;;;;;;32.33;16.50;;;15.90;99.90;;;;;;5095953;28;20690;-75
2021/07/14 01:57:04;;;;;;;35.23;17.00;;;15.90;99.90;;;;;;5095974;28;20260;-76
2021/07/14 01:59:36;;;;;;;29.20;15.67;;;15.80;99.90;;;;;;5096153;28;20289;-76
2021/07/14 02:02:05;;;;;;;34.57;16.43;;;15.90;99.90;;;;;;5095635;28;20230;-76
2021/07/14 02:04:33;;;;;;;35.67;17.60;;;16.00;99.90;;;;;;5095652;28;20191;-76
2021/07/14 02:07:05;;;;;;;34.67;16.60;;;16.00;99.90;;;;;;5095722;28;20665;-76
2021/07/14 02:09:34;;;;;;;31.07;16.93;;;16.10;99.90;;;;;;5095454;28;20710;-76
2021/07/14 02:12:03;;;;;;;32.70;17.43;;;16.00;99.90;;;;;;5095547;28;20286;-76
2021/07/14 02:14:35;;;;;;;32.07;16.93;;;16.00;99.90;;;;;;5095128;28;20660;-76
2021/07/14 02:17:06;;;;;;;33.50;16.77;;;16.00;99.90;;;;;;5095735;28;20252;-76
2021/07/14 02:19:36;;;;;;;30.03;15.67;;;16.00;99.90;;;;;;5095591;28;20285;-75
2021/07/14 02:22:04;;;;;;;33.07;17.07;;;16.00;99.90;;;;;;5095414;28;20241;-76
2021/07/14 02:24:33;;;;;;;38.00;16.67;;;16.00;99.90;;;;;;5095179;28;20202;-75
2021/07/14 02:27:05;;;;;;;27.90;15.87;;;16.00;99.90;;;;;;5094987;28;20226;-76
2021/07/14 02:29:35;;;;;;;32.90;16.20;;;15.90;99.90;;;;;;5095691;28;20197;-75
2021/07/14 02:32:02;;;;;;;36.63;18.30;;;15.90;99.90;;;;;;5095496;28;20191;-75
2021/07/14 02:34:29;;;;;;;29.13;16.60;;;15.90;99.90;;;;;;5095353;28;20365;-75
2021/07/14 02:36:57;;;;;;;33.57;17.00;;;15.90;99.90;;;;;;5095068;28;20242;-76
2021/07/14 02:39:26;;;;;;;35.50;17.27;;;15.90;99.90;;;;;;5094920;28;20630;-76
2021/07/14 02:42:00;;;;;;;31.97;17.50;;;16.00;99.90;;;;;;5094922;28;20676;-75
2021/07/14 02:44:27;;;;;;;32.83;17.77;;;16.00;99.90;;;;;;5095181;28;20235;-75
2021/07/14 02:46:59;;;;;;;31.83;16.57;;;16.00;99.90;;;;;;5095103;28;20309;-76
2021/07/14 02:49:28;;;;;;;32.30;17.17;;;16.00;99.90;;;;;;5095235;28;20286;-76
2021/07/14 02:51:55;;;;;;;31.17;16.90;;;16.10;99.90;;;;;;5094696;28;20641;-76
2021/07/14 02:54:25;;;;;;;29.50;17.27;;;16.00;99.90;;;;;;5094602;28;20671;-76
2021/07/14 02:56:59;;;;;;;35.73;16.57;;;16.00;99.90;;;;;;5094766;28;20199;-76
2021/07/14 02:59:29;;;;;;;36.00;16.93;;;16.00;99.90;;;;;;5094733;28;20206;-76
2021/07/14 03:01:59;;;;;;;31.93;17.10;;;16.00;99.90;;;;;;5094877;28;20282;-76
2021/07/14 03:04:29;;;;;;;35.60;17.27;;;16.10;99.90;;;;;;5094430;28;20191;-76
2021/07/14 03:07:02;;;;;;;38.37;17.47;;;16.20;99.90;;;;;;5094834;28;20231;-76
2021/07/14 03:09:37;;;;;;;31.70;16.40;;;16.20;99.90;;;;;;5094744;28;20191;-76
2021/07/14 03:12:09;;;;;;;28.53;16.37;;;16.20;99.90;;;;;;5094594;28;20202;-76
2021/07/14 03:14:41;;;;;;;33.50;17.50;;;16.20;99.90;;;;;;5094247;28;20658;-76
2021/07/14 03:17:13;;;;;;;37.77;18.27;;;16.30;99.90;;;;;;5077005;28;20210;-75
2021/07/14 03:19:40;;;;;;;35.67;17.80;;;16.40;99.90;;;;;;5073875;28;20249;-75
2021/07/14 03:22:11;;;;;;;36.30;19.43;;;16.40;99.90;;;;;;5088880;28;20669;-75
2021/07/14 03:24:41;;;;;;;37.00;18.57;;;16.40;99.90;;;;;;5093698;28;20237;-75
2021/07/14 03:27:11;;;;;;;37.90;18.77;;;16.30;99.90;;;;;;5093846;28;20262;-75
2021/07/14 03:29:39;;;;;;;34.73;19.07;;;16.30;99.90;;;;;;5094017;28;20187;-75
2021/07/14 03:32:07;;;;;;;40.40;18.70;;;16.30;99.90;;;;;;5094456;28;20285;-75
2021/07/14 03:34:37;;;;;;;49.07;20.50;;;16.30;99.90;;;;;;5094306;28;20201;-75
2021/07/14 03:37:06;;;;;;;40.73;19.83;;;16.30;99.90;;;;;;5094304;28;20198;-75
2021/07/14 03:39:34;;;;;;;42.77;19.73;;;16.40;99.90;;;;;;5094167;28;20278;-75
2021/07/14 03:42:03;;;;;;;44.30;20.17;;;16.30;99.90;;;;;;5093732;28;20195;-75
2021/07/14 03:44:31;;;;;;;44.57;20.07;;;16.40;99.90;;;;;;5093931;28;20198;-75
2021/07/14 03:47:00;;;;;;;43.93;20.23;;;16.30;99.90;;;;;;5093872;28;20222;-76
2021/07/14 03:49:27;;;;;;;44.33;19.80;;;16.30;99.90;;;;;;5093542;28;20221;-75
2021/07/14 03:51:56;;;;;;;50.07;20.93;;;16.30;99.90;;;;;;5093690;28;20201;-75
2021/07/14 03:54:27;;;;;;;48.00;20.80;;;16.40;99.90;;;;;;5093678;28;20384;-75
2021/07/14 03:56:54;;;;;;;50.07;21.00;;;16.50;99.90;;;;;;5093730;28;20199;-75
2021/07/14 03:59:22;;;;;;;39.93;19.70;;;16.50;99.90;;;;;;5093781;28;20626;-75
2021/07/14 04:01:50;;;;;;;45.20;19.43;;;16.50;99.90;;;;;;5093215;28;20277;-75
2021/07/14 04:04:17;;;;;;;40.40;19.23;;;16.50;99.90;;;;;;5093604;28;20195;-75
2021/07/14 04:06:47;;;;;;;48.83;20.47;;;16.50;99.90;;;;;;5093510;28;20305;-75
2021/07/14 04:09:23;;;;;;;43.20;19.93;;;16.60;99.90;;;;;;5093291;28;20199;-75
2021/07/14 04:11:53;;;;;;;43.23;18.70;;;16.60;99.90;;;;;;5093705;28;20234;-75
2021/07/14 04:14:20;;;;;;;40.17;20.13;;;16.60;99.90;;;;;;5093637;28;20230;-75
2021/07/14 04:16:47;;;;;;;40.77;18.53;;;16.60;99.90;;;;;;5093385;28;20302;-75
2021/07/14 04:19:14;;;;;;;39.83;18.20;;;16.70;99.90;;;;;;5093337;28;20278;-75
2021/07/14 04:21:41;;;;;;;43.23;19.30;;;16.70;99.90;;;;;;5093100;28;20242;-76
2021/07/14 04:24:08;;;;;;;48.77;19.83;;;16.80;99.90;;;;;;5093302;28;20198;-75
2021/07/14 04:26:37;;;;;;;40.97;18.93;;;16.70;99.90;;;;;;5092955;28;20229;-75
2021/07/14 04:29:08;;;;;;;46.03;20.37;;;16.80;99.90;;;;;;5093246;28;20294;-75
2021/07/14 04:31:37;;;;;;;47.17;20.60;;;16.80;99.90;;;;;;5093308;28;20226;-75
2021/07/14 04:34:07;;;;;;;50.47;21.90;;;16.70;99.90;;;;;;5092926;28;20190;-75
2021/07/14 04:36:34;;;;;;;52.87;21.53;;;16.70;99.90;;;;;;5093294;28;20191;-74
2021/07/14 04:39:01;;;;;;;48.13;20.43;;;16.70;99.90;;;;;;5092769;28;20195;-76
2021/07/14 04:41:28;;;;;;;49.00;21.70;;;16.70;99.90;;;;;;5093070;28;20226;-76
2021/07/14 04:43:59;;;;;;;53.57;21.27;;;16.70;99.90;;;;;;5092923;28;20203;-76
2021/07/14 04:46:26;;;;;;;47.43;20.97;;;16.70;99.90;;;;;;5093051;28;20381;-75
2021/07/14 04:48:53;;;;;;;48.30;21.10;;;16.60;99.90;;;;;;5092844;28;20195;-75
2021/07/14 04:51:20;;;;;;;40.93;20.63;;;16.60;99.90;;;;;;5092927;28;20197;-74
2021/07/14 04:53:47;;;;;;;40.37;21.27;;;16.70;99.90;;;;;;5093232;28;20195;-76
2021/07/14 04:56:16;;;;;;;49.70;20.33;;;16.70;99.90;;;;;;5092958;28;20226;-75
2021/07/14 04:58:43;;;;;;;49.50;21.67;;;16.70;99.90;;;;;;5092652;28;20198;-75
2021/07/14 05:01:13;;;;;;;52.77;21.90;;;16.70;99.90;;;;;;5093078;28;20195;-76
2021/07/14 05:03:40;;;;;;;54.27;21.50;;;16.70;99.90;;;;;;5092926;28;20226;-75
2021/07/14 05:06:09;;;;;;;45.43;20.13;;;16.70;99.90;;;;;;5093102;28;20202;-76
2021/07/14 05:08:36;;;;;;;47.70;20.60;;;16.70;99.90;;;;;;5092755;28;20269;-75
2021/07/14 05:11:03;;;;;;;57.03;21.70;;;16.70;99.90;;;;;;5092353;28;20242;-75
2021/07/14 05:13:30;;;;;;;55.23;22.30;;;16.70;99.90;;;;;;5091775;28;20295;-75
2021/07/14 05:15:57;;;;;;;47.33;21.70;;;16.70;99.90;;;;;;5086542;28;20194;-76
2021/07/14 05:18:25;;;;;;;56.73;24.17;;;16.70;99.90;;;;;;5072321;28;20195;-75
2021/07/14 05:20:52;;;;;;;47.80;21.87;;;16.70;99.90;;;;;;5080293;28;20193;-75
2021/07/14 05:23:19;;;;;;;56.03;22.37;;;16.60;99.90;;;;;;5090941;28;20279;-75
2021/07/14 05:25:46;;;;;;;52.87;21.87;;;16.70;99.90;;;;;;5095834;28;20225;-75
2021/07/14 05:28:16;;;;;;;44.90;21.07;;;16.70;99.90;;;;;;5112466;28;20225;-75
2021/07/14 05:30:43;;;;;;;45.50;20.37;;;16.80;99.90;;;;;;5102108;28;20233;-75
2021/07/14 05:33:10;;;;;;;51.83;21.40;;;16.70;99.90;;;;;;5092131;28;20638;-75
2021/07/14 05:35:39;;;;;;;54.83;21.87;;;16.80;99.90;;;;;;5099758;28;20233;-75
2021/07/14 05:38:06;;;;;;;45.00;21.10;;;16.80;99.90;;;;;;5108044;28;20242;-74
2021/07/14 05:40:33;;;;;;;48.53;20.97;;;16.80;99.90;;;;;;5079629;28;20227;-74
2021/07/14 05:43:00;;;;;;;43.20;20.53;;;16.70;99.90;;;;;;5090505;28;20293;-75
2021/07/14 05:45:26;;;;;;;42.87;20.20;;;16.80;99.90;;;;;;5081520;28;20290;-75
2021/07/14 05:47:53;;;;;;;45.97;19.83;;;16.80;99.90;;;;;;5090097;28;20230;-75
2021/07/14 05:50:20;;;;;;;43.23;19.73;;;16.80;99.90;;;;;;5084113;28;20194;-75
2021/07/14 05:52:49;;;;;;;42.53;20.30;;;16.70;99.90;;;;;;5097526;28;20285;-76
2021/07/14 05:55:16;;;;;;;43.47;20.00;;;16.80;99.90;;;;;;5108744;28;20220;-75
2021/07/14 05:57:43;;;;;;;38.73;19.90;;;16.80;99.90;;;;;;5098500;28;20568;-75
2021/07/14 06:00:11;;;;;;;42.20;19.77;;;16.80;99.90;;;;;;5095243;28;20197;-76
2021/07/14 06:02:38;;;;;;;38.87;19.47;;;16.70;99.90;;;;;;5075081;28;20234;-76
2021/07/14 06:05:09;;;;;;;40.40;18.80;;;16.70;99.90;;;;;;5092485;28;20204;-75
2021/07/14 06:07:37;;;;;;;39.57;19.47;;;16.80;99.90;;;;;;5095172;28;20202;-76
2021/07/14 06:10:06;;;;;;;40.43;20.27;;;16.70;99.90;;;;;;5099269;28;20205;-76
2021/07/14 06:12:36;;;;;;;38.47;19.43;;;16.70;99.90;;;;;;5080161;28;20202;-75
2021/07/14 06:15:03;;;;;;;36.40;19.27;;;16.80;99.90;;;;;;5075154;28;20227;-75
2021/07/14 06:17:30;;;;;;;37.03;18.23;;;16.70;99.90;;;;;;5075025;28;20286;-75
2021/07/14 06:19:57;;;;;;;37.73;18.00;;;16.80;99.90;;;;;;5088396;28;20226;-75
2021/07/14 06:22:24;;;;;;;36.83;17.30;;;16.80;99.90;;;;;;5094658;28;20225;-75
2021/07/14 06:24:51;;;;;;;31.00;16.03;;;16.80;99.90;;;;;;5094473;28;20201;-75
2021/07/14 06:27:19;;;;;;;28.17;15.83;;;16.70;99.90;;;;;;5094238;28;20317;-75
2021/07/14 06:29:47;;;;;;;29.30;15.40;;;16.70;99.90;;;;;;5094835;28;20337;-75
2021/07/14 06:32:13;;;;;;;25.53;14.53;;;16.70;99.90;;;;;;5094642;28;20278;-76
2021/07/14 06:34:41;;;;;;;30.67;15.23;;;16.70;99.90;;;;;;5094372;28;20694;-75
2021/07/14 06:37:08;;;;;;;27.87;16.00;;;16.70;99.90;;;;;;5093979;28;20784;-75
2021/07/14 06:39:35;;;;;;;25.90;14.13;;;16.70;99.90;;;;;;5094493;28;20200;-75
2021/07/14 06:42:02;;;;;;;24.67;14.60;;;16.70;99.90;;;;;;5094006;28;20203;-74
2021/07/14 06:44:30;;;;;;;29.67;14.50;;;16.70;99.90;;;;;;5094301;28;20249;-75
2021/07/14 06:46:57;;;;;;;24.77;15.17;;;16.70;99.90;;;;;;5094482;28;20231;-75
2021/07/14 06:49:24;;;;;;;28.63;14.97;;;16.70;99.90;;;;;;5094220;28;20297;-76
2021/07/14 06:51:51;;;;;;;25.77;14.70;;;16.60;99.90;;;;;;5094203;28;20258;-75
2021/07/14 06:54:20;;;;;;;30.37;14.80;;;16.60;99.90;;;;;;5094463;28;20281;-75
2021/07/14 06:56:47;;;;;;;27.77;15.30;;;16.60;99.90;;;;;;5094652;28;20262;-75
2021/07/14 06:59:14;;;;;;;34.30;16.50;;;16.50;99.90;;;;;;5092837;28;20230;-75
2021/07/14 07:01:42;;;;;;;29.13;16.50;;;16.50;99.90;;;;;;5105389;28;20203;-74
2021/07/14 07:04:09;;;;;;;24.50;15.13;;;16.50;99.90;;;;;;5093871;28;20235;-75
2021/07/14 07:06:35;;;;;;;29.90;15.57;;;16.50;99.90;;;;;;5094794;28;20236;-75
2021/07/14 07:09:04;;;;;;;31.40;15.37;;;16.60;99.90;;;;;;5094398;28;20248;-74
2021/07/14 07:11:34;;;;;;;28.00;16.27;;;16.60;99.90;;;;;;5094384;28;20206;-75
2021/07/14 07:14:03;;;;;;;24.30;15.37;;;16.60;99.90;;;;;;5093633;28;20202;-75
2021/07/14 07:16:30;;;;;;;27.07;16.13;;;16.70;99.90;;;;;;5094016;28;20195;-74
2021/07/14 07:18:58;;;;;;;26.50;16.67;;;16.80;99.90;;;;;;5093622;28;20209;-75
2021/07/14 07:21:25;;;;;;;29.83;15.90;;;16.80;99.90;;;;;;5093529;28;20201;-75
2021/07/14 07:23:52;;;;;;;30.10;16.23;;;16.70;99.90;;;;;;5088593;28;20191;-75
2021/07/14 07:26:19;;;;;;;28.27;16.00;;;16.80;99.90;;;;;;5092031;28;20213;-74
2021/07/14 07:28:46;;;;;;;32.10;15.97;;;16.70;99.90;;;;;;5093267;28;20246;-75
2021/07/14 07:31:13;;;;;;;38.27;16.97;;;16.70;99.90;;;;;;5093723;28;20234;-74
2021/07/14 07:33:40;;;;;;;33.23;16.70;;;16.80;99.90;;;;;;5093878;28;20289;-75
2021/07/14 07:36:09;;;;;;;33.90;16.77;;;16.80;99.90;;;;;;5093067;28;20209;-75
2021/07/14 07:38:39;;;;;;;31.70;16.60;;;16.80;99.90;;;;;;5093325;28;20201;-74
2021/07/14 07:41:06;;;;;;;29.20;16.43;;;16.80;99.90;;;;;;5088760;28;20195;-75
2021/07/14 07:43:33;;;;;;;34.13;17.30;;;16.80;99.90;;;;;;5092443;28;20290;-74
2021/07/14 07:46:00;;;;;;;31.57;15.53;;;16.80;99.90;;;;;;5084181;28;20643;-75
2021/07/14 07:48:27;;;;;;;30.37;16.83;;;16.90;99.90;;;;;;5090907;28;20225;-75
2021/07/14 07:50:54;;;;;;;29.77;15.73;;;16.90;99.90;;;;;;5084538;28;20278;-75
2021/07/14 07:53:23;;;;;;;32.43;16.87;;;16.80;99.90;;;;;;5090868;28;20298;-75
2021/07/14 07:55:52;;;;;;;37.03;16.90;;;16.70;99.90;;;;;;5081629;28;20201;-75
2021/07/14 07:58:20;;;;;;;29.63;14.47;;;16.70;99.90;;;;;;5102290;28;20617;-75
2021/07/14 08:00:48;;;;;;;31.70;15.50;;;16.70;99.90;;;;;;5092414;28;20298;-75
2021/07/14 08:03:15;;;;;;;25.53;14.07;;;16.70;99.90;;;;;;5083229;28;20230;-75
2021/07/14 08:05:43;;;;;;;24.63;13.83;;;16.70;99.90;;;;;;5093235;28;20194;-75
2021/07/14 08:08:10;;;;;;;26.30;13.40;;;16.60;99.90;;;;;;5095930;28;20223;-75
2021/07/14 08:10:39;;;;;;;23.83;14.50;;;16.70;99.90;;;;;;5093937;28;20230;-75
2021/07/14 08:13:06;;;;;;;28.23;15.63;;;16.70;99.90;;;;;;5095743;28;20206;-75
2021/07/14 08:15:33;;;;;;;26.77;14.47;;;16.70;99.90;;;;;;5086329;28;20199;-75
2021/07/14 08:18:00;;;;;;;21.80;13.63;;;16.70;99.90;;;;;;5097413;28;20208;-76
2021/07/14 08:20:28;;;;;;;22.27;13.60;;;16.70;99.90;;;;;;5093828;28;20205;-75
2021/07/14 08:22:56;;;;;;;21.67;13.43;;;16.60;99.90;;;;;;5083629;28;20281;-75
2021/07/14 08:25:23;;;;;;;21.93;12.40;;;16.70;99.90;;;;;;5091817;28;20201;-75
2021/07/14 08:27:51;;;;;;;17.07;11.20;;;16.70;99.90;;;;;;5093995;28;20221;-76
2021/07/14 08:30:19;;;;;;;19.13;11.00;;;16.70;99.90;;;;;;5085823;28;20199;-75
2021/07/14 08:32:46;;;;;;;19.93;11.27;;;16.70;99.90;;;;;;5097972;28;20289;-75
2021/07/14 08:35:15;;;;;;;17.70;11.53;;;16.70;99.90;;;;;;5091020;28;20201;-75
2021/07/14 08:37:41;;;;;;;19.20;11.77;;;16.70;99.90;;;;;;5092635;28;20225;-76
2021/07/14 08:40:09;;;;;;;17.97;12.10;;;16.70;99.90;;;;;;5097166;28;20289;-77
2021/07/14 08:42:39;;;;;;;20.40;11.73;;;16.70;99.90;;;;;;5097021;28;20244;-75
2021/07/14 08:45:11;;;;;;;18.60;12.03;;;16.80;99.90;;;;;;5104224;28;20199;-76
2021/07/14 08:47:39;;;;;;;18.50;11.97;;;16.70;99.90;;;;;;5097760;28;20654;-76
2021/07/14 08:50:09;;;;;;;23.03;12.23;;;16.70;99.90;;;;;;5098955;28;20662;-75
2021/07/14 08:52:38;;;;;;;21.63;12.83;;;16.70;99.90;;;;;;5088436;28;20194;-76
2021/07/14 08:55:06;;;;;;;18.70;13.23;;;16.70;99.90;;;;;;5099798;28;20286;-75
2021/07/14 08:57:33;;;;;;;20.63;12.37;;;16.70;99.90;;;;;;5088940;28;20222;-75
2021/07/14 08:59:59;;;;;;;21.63;12.57;;;16.80;99.90;;;;;;5091884;28;20328;-76
2021/07/14 09:02:30;;;;;;;20.60;12.20;;;16.80;99.90;;;;;;5094097;28;20209;-75
2021/07/14 09:04:57;;;;;;;18.33;11.73;;;16.70;99.90;;;;;;5093846;28;20651;-76
2021/07/14 09:07:25;;;;;;;16.00;12.33;;;16.70;99.90;;;;;;5091774;28;20268;-75
2021/07/14 09:09:55;;;;;;;19.70;11.43;;;16.80;99.90;;;;;;5092208;28;20314;-75
2021/07/14 09:12:34;;;;;;;18.17;11.53;;;16.80;99.90;;;;;;5091015;28;20254;-75
2021/07/14 09:15:05;;;;;;;14.83;11.07;;;16.90;99.90;;;;;;5094589;28;20194;-76
2021/07/14 09:17:34;;;;;;;17.33;11.27;;;16.80;99.90;;;;;;5092001;28;20213;-76
2021/07/14 09:20:10;;;;;;;18.83;11.17;;;16.80;99.90;;;;;;5092945;28;20281;-76
2021/07/14 09:22:37;;;;;;;19.90;12.13;;;16.70;99.90;;;;;;5092675;28;20238;-76
2021/07/14 09:25:09;;;;;;;17.93;12.10;;;16.80;99.90;;;;;;5102168;28;20208;-76
2021/07/14 09:27:38;;;;;;;20.83;12.27;;;16.80;99.90;;;;;;5095612;28;20289;-76
2021/07/14 09:30:09;;;;;;;17.83;11.50;;;16.80;99.90;;;;;;5097019;28;20214;-76
2021/07/14 09:32:55;;;;;;;24.73;12.57;;;16.80;99.90;;;;;;5099300;28;20281;-76
2021/07/14 09:35:30;;;;;;;23.00;13.40;;;16.80;99.90;;;;;;5095363;28;20298;-76
2021/07/14 09:37:59;;;;;;;21.17;11.60;;;16.70;99.90;;;;;;5095618;28;20202;-76
2021/07/14 09:40:27;;;;;;;20.57;12.60;;;16.70;99.90;;;;;;5096519;28;20226;-76
2021/07/14 09:42:57;;;;;;;19.87;12.70;;;16.70;99.90;;;;;;5094018;28;20218;-76
2021/07/14 09:45:46;;;;;;;23.07;13.10;;;16.70;99.90;;;;;;5092327;28;20206;-76
2021/07/14 09:48:21;;;;;;;28.47;14.13;;;16.70;99.90;;;;;;5097927;28;20297;-76
2021/07/14 09:50:50;;;;;;;18.40;12.57;;;16.70;99.90;;;;;;5092442;28;20285;-76
2021/07/14 09:53:20;;;;;;;22.57;13.50;;;16.80;99.90;;;;;;5094039;28;20195;-76
2021/07/14 09:55:49;;;;;;;22.43;13.33;;;16.90;99.90;;;;;;5091982;28;20285;-76
2021/07/14 09:58:18;;;;;;;19.70;12.10;;;16.90;99.90;;;;;;5095470;28;20233;-76
2021/07/14 10:00:47;;;;;;;25.90;13.60;;;16.90;99.90;;;;;;5095435;28;20311;-77
2021/07/14 10:03:24;;;;;;;22.17;13.23;;;17.00;99.90;;;;;;5095374;28;20198;-76
2021/07/14 10:06:01;;;;;;;22.40;13.77;;;16.90;99.90;;;;;;5094204;28;20994;-76
2021/07/14 10:08:28;;;;;;;21.93;12.70;;;16.90;99.90;;;;;;5095377;28;20226;-76
2021/07/14 10:11:14;;;;;;;21.40;14.03;;;16.90;99.90;;;;;;5094996;28;20219;-77
2021/07/14 10:13:50;;;;;;;18.90;13.77;;;17.00;99.90;;;;;;5095460;28;20195;-76
2021/07/14 10:16:18;;;;;;;21.00;13.57;;;17.00;99.90;;;;;;5092144;28;20208;-76
2021/07/14 10:19:04;;;;;;;22.97;13.43;;;16.90;99.90;;;;;;5094691;28;20199;-75
2021/07/14 10:21:33;;;;;;;22.27;13.63;;;16.90;99.90;;;;;;5085821;28;20525;-76
2021/07/14 10:24:01;;;;;;;23.93;13.87;;;17.00;99.90;;;;;;5095473;28;20655;-76
2021/07/14 10:26:28;;;;;;;20.33;13.30;;;17.10;99.90;;;;;;5088873;28;20191;-76
2021/07/14 10:28:57;;;;;;;21.67;13.13;;;17.00;99.90;;;;;;5091396;28;20224;-76
2021/07/14 10:31:24;;;;;;;17.23;12.40;;;17.10;99.90;;;;;;5091716;28;20199;-76
2021/07/14 10:33:52;;;;;;;16.50;11.90;;;17.10;99.90;;;;;;5091678;28;20207;-75
2021/07/14 10:36:24;;;;;;;20.23;12.60;;;17.00;99.90;;;;;;5087185;28;20663;-75
2021/07/14 10:38:55;;;;;;;24.97;13.13;;;17.00;99.90;;;;;;5090863;28;20209;-76
2021/07/14 10:41:23;;;;;;;20.47;13.13;;;17.00;99.90;;;;;;5097410;28;20198;-75
2021/07/14 10:43:51;;;;;;;19.43;12.67;;;17.00;99.90;;;;;;5090512;28;20202;-74
2021/07/14 10:46:19;;;;;;;20.20;12.57;;;17.00;99.90;;;;;;5093901;28;20195;-74
2021/07/14 10:48:48;;;;;;;20.93;12.37;;;16.90;99.90;;;;;;5092996;28;20608;-75
2021/07/14 10:51:16;;;;;;;17.30;11.60;;;16.90;99.90;;;;;;5093336;28;20641;-74
2021/07/14 10:53:50;;;;;;;18.97;11.80;;;16.90;99.90;;;;;;5091944;28;20639;-74
2021/07/14 10:56:19;;;;;;;17.57;11.57;;;17.00;99.90;;;;;;5090754;28;20282;-74
2021/07/14 10:58:48;;;;;;;15.43;10.43;;;17.00;99.90;;;;;;5093177;28;20202;-74
2021/07/14 11:01:39;;;;;;;16.10;9.67;;;17.10;99.90;;;;;;5092865;28;20199;-74
2021/07/14 11:04:10;;;;;;;13.20;9.27;;;17.20;99.90;;;;;;5087806;28;20199;-74
2021/07/14 11:06:54;;;;;;;15.30;10.20;;;17.20;99.90;;;;;;5087127;28;20298;-75
2021/07/14 11:09:33;;;;;;;14.17;9.20;;;17.20;99.90;;;;;;5087124;28;20741;-74
2021/07/14 11:12:02;;;;;;;12.67;8.97;;;17.00;99.90;;;;;;5086211;28;20199;-74
2021/07/14 11:14:35;;;;;;;13.37;9.33;;;17.00;99.90;;;;;;5093057;28;20228;-75
2021/07/14 11:17:03;;;;;;;12.93;9.10;;;17.00;99.90;;;;;;5084820;28;20207;-74
2021/07/14 11:19:43;;;;;;;14.00;9.30;;;17.00;99.90;;;;;;5092318;28;20195;-75
2021/07/14 11:22:10;;;;;;;12.13;8.57;;;17.00;99.90;;;;;;5096913;28;20293;-74
2021/07/14 11:24:59;;;;;;;12.43;9.07;;;17.00;99.90;;;;;;5088828;28;20230;-74
2021/07/14 11:27:54;;;;;;;16.43;9.80;;;17.00;99.90;;;;;;5090490;28;20576;-74
2021/07/14 11:30:40;;;;;;;13.67;8.53;;;17.10;99.90;;;;;;5086974;28;20207;-74
2021/07/14 11:33:07;;;;;;;12.53;9.10;;;17.00;99.90;;;;;;5092797;28;20277;-74
2021/07/14 11:35:43;;;;;;;11.53;8.73;;;17.10;99.90;;;;;;5093455;28;20225;-74
2021/07/14 11:38:22;;;;;;;16.07;9.20;;;17.10;99.90;;;;;;5088107;28;20199;-74
2021/07/14 11:40:52;;;;;;;13.90;9.50;;;17.10;99.90;;;;;;5093628;28;20311;-74
2021/07/14 11:43:28;;;;;;;13.43;9.13;;;17.10;99.90;;;;;;5093828;28;20285;-75
2021/07/14 11:46:03;;;;;;;13.97;9.20;;;17.10;99.90;;;;;;5093753;28;20273;-74
2021/07/14 11:48:32;;;;;;;15.13;9.83;;;17.10;99.90;;;;;;5095845;28;20276;-74
2021/07/14 11:51:02;;;;;;;14.47;9.40;;;17.10;99.90;;;;;;5091442;28;20217;-75
2021/07/14 11:53:36;;;;;;;14.03;8.93;;;17.20;99.90;;;;;;5097719;28;20587;-75
2021/07/14 11:56:07;;;;;;;13.10;8.57;;;17.40;99.90;;;;;;5088717;28;20670;-74
2021/07/14 11:58:48;;;;;;;10.73;7.40;;;17.70;99.90;;;;;;5091057;28;20233;-75
2021/07/14 12:02:02;;;;;;;11.40;7.80;;;17.90;99.90;;;;;;5095226;28;20610;-75
2021/07/14 12:04:37;;;;;;;12.27;8.07;;;18.00;99.90;;;;;;5102238;28;20282;-74
2021/07/14 12:07:12;;;;;;;14.03;7.23;;;18.10;99.90;;;;;;5090235;28;20205;-75
2021/07/14 12:09:49;;;;;;;9.47;7.20;;;18.10;99.90;;;;;;5088847;28;20722;-75
2021/07/14 12:12:26;;;;;;;9.10;6.83;;;18.10;99.90;;;;;;5088665;28;20195;-75
2021/07/14 12:14:55;;;;;;;10.77;6.83;;;18.20;99.90;;;;;;5095877;28;20210;-75
2021/07/14 12:17:24;;;;;;;12.07;6.50;;;18.20;99.90;;;;;;5092216;28;20655;-75
2021/07/14 12:19:55;;;;;;;9.30;5.87;;;18.10;99.90;;;;;;5091899;28;20248;-75
2021/07/14 12:22:23;;;;;;;9.07;6.10;;;18.20;99.90;;;;;;5096031;28;20195;-75
2021/07/14 12:24:53;;;;;;;10.17;6.97;;;18.30;99.90;;;;;;5096125;28;20281;-75
2021/07/14 12:27:22;;;;;;;7.37;6.27;;;18.40;99.90;;;;;;5093403;28;20207;-75
2021/07/14 12:30:01;;;;;;;9.50;6.27;;;18.50;99.90;;;;;;5082431;28;20373;-76
2021/07/14 12:32:33;;;;;;;9.13;6.60;;;18.40;99.90;;;;;;5086866;28;21165;-75
2021/07/14 12:35:01;;;;;;;10.17;6.60;;;18.70;99.90;;;;;;5094737;28;20198;-75
2021/07/14 12:37:28;;;;;;;9.00;6.10;;;18.80;99.90;;;;;;5089691;28;20285;-74
2021/07/14 12:39:56;;;;;;;10.60;6.00;;;18.80;99.90;;;;;;5099781;28;20225;-75
2021/07/14 12:42:24;;;;;;;9.37;5.37;;;18.70;99.90;;;;;;5086873;28;20287;-75
2021/07/14 12:44:51;;;;;;;9.97;6.10;;;18.70;99.90;;;;;;5087588;28;20198;-75
2021/07/14 12:47:22;;;;;;;11.07;5.33;;;18.90;99.90;;;;;;5094393;28;20199;-75
2021/07/14 12:49:52;;;;;;;9.37;5.10;;;18.90;99.90;;;;;;5099142;28;20297;-75